sensor_id;sensor_type;location;lat;lon;timestamp;P1;durP1;ratioP1;P2;durP2;ratioP2
39918;SDS011;25589;51.552;13.424;2023-06-14T00:02:12;2.78;;;1.92;;
39918;SDS011;25589;51.552;13.424;2023-06-14T00:04:38;2.97;;;2.10;;
39918;SDS011;25589;51.552;13.424;2023-06-14T00:07:04;7.38;;;1.83;;
39918;SDS011;25589;51.552;13.424;2023-06-14T00:09:33;2.08;;;1.88;;
39918;SDS011;25589;51.552;13.424;2023-06-14T00:12:00;2.10;;;1.80;;
39918;SDS011;25589;51.552;13.424;2023-06-14T00:14:25;3.13;;;1.95;;
39918;SDS011;25589;51.552;13.424;2023-06-14T00:16:51;2.63;;;1.98;;
39918;SDS011;25589;51.552;13.424;2023-06-14T00:19:23;2.63;;;1.90;;
39918;SDS011;25589;51.552;13.424;2023-06-14T00:21:49;6.88;;;2.10;;
39918;SDS011;25589;51.552;13.424;2023-06-14T00:24:17;2.63;;;2.00;;
39918;SDS011;25589;51.552;13.424;2023-06-14T00:26:42;2.03;;;1.83;;
39918;SDS011;25589;51.552;13.424;2023-06-14T00:29:08;3.20;;;2.10;;
39918;SDS011;25589;51.552;13.424;2023-06-14T00:31:33;4.03;;;2.03;;
39918;SDS011;25589;51.552;13.424;2023-06-14T00:33:59;4.07;;;2.28;;
39918;SDS011;25589;51.552;13.424;2023-06-14T00:36:25;3.38;;;2.35;;
39918;SDS011;25589;51.552;13.424;2023-06-14T00:38:51;2.45;;;2.00;;
39918;SDS011;25589;51.552;13.424;2023-06-14T00:41:16;2.78;;;2.05;;
39918;SDS011;25589;51.552;13.424;2023-06-14T00:43:42;2.60;;;1.83;;
39918;SDS011;25589;51.552;13.424;2023-06-14T00:46:07;2.70;;;1.80;;
39918;SDS011;25589;51.552;13.424;2023-06-14T00:48:33;3.15;;;1.90;;
39918;SDS011;25589;51.552;13.424;2023-06-14T00:51:01;4.32;;;2.22;;
39918;SDS011;25589;51.552;13.424;2023-06-14T00:53:29;4.35;;;2.10;;
39918;SDS011;25589;51.552;13.424;2023-06-14T00:55:56;2.05;;;1.85;;
39918;SDS011;25589;51.552;13.424;2023-06-14T00:58:22;3.63;;;2.15;;
39918;SDS011;25589;51.552;13.424;2023-06-14T01:00:48;3.97;;;2.28;;
39918;SDS011;25589;51.552;13.424;2023-06-14T01:03:13;5.82;;;2.42;;
39918;SDS011;25589;51.552;13.424;2023-06-14T01:05:46;4.55;;;2.42;;
39918;SDS011;25589;51.552;13.424;2023-06-14T01:08:36;2.50;;;1.92;;
39918;SDS011;25589;51.552;13.424;2023-06-14T01:11:13;4.15;;;2.40;;
39918;SDS011;25589;51.552;13.424;2023-06-14T01:13:46;9.55;;;2.30;;
39918;SDS011;25589;51.552;13.424;2023-06-14T01:16:13;5.38;;;2.30;;
39918;SDS011;25589;51.552;13.424;2023-06-14T01:18:39;3.42;;;2.05;;
39918;SDS011;25589;51.552;13.424;2023-06-14T01:21:19;2.65;;;1.90;;
39918;SDS011;25589;51.552;13.424;2023-06-14T01:23:49;3.30;;;2.08;;
39918;SDS011;25589;51.552;13.424;2023-06-14T01:26:18;3.10;;;2.17;;
39918;SDS011;25589;51.552;13.424;2023-06-14T01:28:45;3.20;;;1.90;;
39918;SDS011;25589;51.552;13.424;2023-06-14T01:31:16;3.00;;;2.15;;
39918;SDS011;25589;51.552;13.424;2023-06-14T01:33:44;2.20;;;1.98;;
39918;SDS011;25589;51.552;13.424;2023-06-14T01:36:11;5.53;;;2.22;;
39918;SDS011;25589;51.552;13.424;2023-06-14T01:38:37;2.40;;;1.92;;
39918;SDS011;25589;51.552;13.424;2023-06-14T01:41:04;3.90;;;2.00;;
39918;SDS011;25589;51.552;13.424;2023-06-14T01:43:31;2.40;;;1.90;;
39918;SDS011;25589;51.552;13.424;2023-06-14T01:45:57;2.33;;;2.13;;
39918;SDS011;25589;51.552;13.424;2023-06-14T01:48:26;2.63;;;2.00;;
39918;SDS011;25589;51.552;13.424;2023-06-14T01:50:52;2.10;;;1.90;;
39918;SDS011;25589;51.552;13.424;2023-06-14T01:53:19;3.60;;;2.40;;
39918;SDS011;25589;51.552;13.424;2023-06-14T01:55:45;2.47;;;2.28;;
39918;SDS011;25589;51.552;13.424;2023-06-14T01:58:13;4.00;;;2.00;;
39918;SDS011;25589;51.552;13.424;2023-06-14T02:00:41;4.70;;;2.20;;
39918;SDS011;25589;51.552;13.424;2023-06-14T02:03:13;2.25;;;1.80;;
39918;SDS011;25589;51.552;13.424;2023-06-14T02:05:38;2.80;;;2.22;;
39918;SDS011;25589;51.552;13.424;2023-06-14T02:08:05;2.65;;;2.33;;
39918;SDS011;25589;51.552;13.424;2023-06-14T02:10:31;4.28;;;2.30;;
39918;SDS011;25589;51.552;13.424;2023-06-14T02:12:56;2.55;;;2.35;;
39918;SDS011;25589;51.552;13.424;2023-06-14T02:15:22;2.35;;;2.15;;
39918;SDS011;25589;51.552;13.424;2023-06-14T02:17:48;4.13;;;2.50;;
39918;SDS011;25589;51.552;13.424;2023-06-14T02:20:17;2.60;;;2.28;;
39918;SDS011;25589;51.552;13.424;2023-06-14T02:22:44;2.92;;;2.28;;
39918;SDS011;25589;51.552;13.424;2023-06-14T02:25:10;3.60;;;2.10;;
39918;SDS011;25589;51.552;13.424;2023-06-14T02:27:36;2.92;;;2.30;;
39918;SDS011;25589;51.552;13.424;2023-06-14T02:30:02;2.38;;;2.03;;
39918;SDS011;25589;51.552;13.424;2023-06-14T02:32:31;3.38;;;2.28;;
39918;SDS011;25589;51.552;13.424;2023-06-14T02:34:56;2.78;;;2.30;;
39918;SDS011;25589;51.552;13.424;2023-06-14T02:37:22;2.70;;;2.30;;
39918;SDS011;25589;51.552;13.424;2023-06-14T02:39:48;5.18;;;2.95;;
39918;SDS011;25589;51.552;13.424;2023-06-14T02:42:13;2.70;;;2.35;;
39918;SDS011;25589;51.552;13.424;2023-06-14T02:44:40;3.35;;;2.22;;
39918;SDS011;25589;51.552;13.424;2023-06-14T02:47:06;2.85;;;2.50;;
39918;SDS011;25589;51.552;13.424;2023-06-14T02:49:32;3.58;;;2.83;;
39918;SDS011;25589;51.552;13.424;2023-06-14T02:51:57;3.05;;;2.38;;
39918;SDS011;25589;51.552;13.424;2023-06-14T02:54:23;2.88;;;2.50;;
39918;SDS011;25589;51.552;13.424;2023-06-14T02:56:50;3.22;;;2.42;;
39918;SDS011;25589;51.552;13.424;2023-06-14T02:59:15;3.20;;;2.60;;
39918;SDS011;25589;51.552;13.424;2023-06-14T03:01:42;3.53;;;2.65;;
39918;SDS011;25589;51.552;13.424;2023-06-14T03:04:10;3.60;;;2.33;;
39918;SDS011;25589;51.552;13.424;2023-06-14T03:06:39;2.65;;;2.38;;
39918;SDS011;25589;51.552;13.424;2023-06-14T03:09:05;2.80;;;2.60;;
39918;SDS011;25589;51.552;13.424;2023-06-14T03:11:31;3.85;;;2.83;;
39918;SDS011;25589;51.552;13.424;2023-06-14T03:13:58;4.40;;;2.72;;
39918;SDS011;25589;51.552;13.424;2023-06-14T03:16:25;4.60;;;2.70;;
39918;SDS011;25589;51.552;13.424;2023-06-14T03:18:55;3.17;;;2.38;;
39918;SDS011;25589;51.552;13.424;2023-06-14T03:21:23;4.38;;;3.08;;
39918;SDS011;25589;51.552;13.424;2023-06-14T03:23:50;5.38;;;2.75;;
39918;SDS011;25589;51.552;13.424;2023-06-14T03:26:16;3.35;;;2.80;;
39918;SDS011;25589;51.552;13.424;2023-06-14T03:28:47;3.70;;;2.97;;
39918;SDS011;25589;51.552;13.424;2023-06-14T03:31:17;3.05;;;2.70;;
39918;SDS011;25589;51.552;13.424;2023-06-14T03:33:44;3.67;;;2.90;;
39918;SDS011;25589;51.552;13.424;2023-06-14T03:36:10;2.58;;;2.22;;
39918;SDS011;25589;51.552;13.424;2023-06-14T03:38:35;8.38;;;2.80;;
39918;SDS011;25589;51.552;13.424;2023-06-14T03:41:03;5.85;;;2.90;;
39918;SDS011;25589;51.552;13.424;2023-06-14T03:43:28;4.20;;;3.30;;
39918;SDS011;25589;51.552;13.424;2023-06-14T03:45:55;2.80;;;2.60;;
39918;SDS011;25589;51.552;13.424;2023-06-14T03:48:22;3.70;;;2.78;;
39918;SDS011;25589;51.552;13.424;2023-06-14T03:50:48;6.38;;;2.92;;
39918;SDS011;25589;51.552;13.424;2023-06-14T03:53:13;3.05;;;2.75;;
39918;SDS011;25589;51.552;13.424;2023-06-14T03:55:43;4.38;;;3.42;;
39918;SDS011;25589;51.552;13.424;2023-06-14T03:58:09;3.75;;;3.15;;
39918;SDS011;25589;51.552;13.424;2023-06-14T04:00:36;3.92;;;3.10;;
39918;SDS011;25589;51.552;13.424;2023-06-14T04:03:02;3.53;;;2.92;;
39918;SDS011;25589;51.552;13.424;2023-06-14T04:05:29;7.18;;;3.58;;
39918;SDS011;25589;51.552;13.424;2023-06-14T04:07:56;6.43;;;3.30;;
39918;SDS011;25589;51.552;13.424;2023-06-14T04:10:22;4.75;;;3.20;;
39918;SDS011;25589;51.552;13.424;2023-06-14T04:12:48;5.97;;;3.10;;
39918;SDS011;25589;51.552;13.424;2023-06-14T04:15:14;5.45;;;3.75;;
39918;SDS011;25589;51.552;13.424;2023-06-14T04:17:39;6.63;;;3.40;;
39918;SDS011;25589;51.552;13.424;2023-06-14T04:20:06;4.45;;;3.75;;
39918;SDS011;25589;51.552;13.424;2023-06-14T04:22:34;5.95;;;3.75;;
39918;SDS011;25589;51.552;13.424;2023-06-14T04:25:01;4.95;;;3.78;;
39918;SDS011;25589;51.552;13.424;2023-06-14T04:27:27;3.97;;;3.58;;
39918;SDS011;25589;51.552;13.424;2023-06-14T04:29:57;5.07;;;3.78;;
39918;SDS011;25589;51.552;13.424;2023-06-14T04:32:30;3.92;;;3.47;;
39918;SDS011;25589;51.552;13.424;2023-06-14T04:34:59;7.05;;;4.38;;
39918;SDS011;25589;51.552;13.424;2023-06-14T04:37:29;5.18;;;4.10;;
39918;SDS011;25589;51.552;13.424;2023-06-14T04:39:55;6.78;;;4.35;;
39918;SDS011;25589;51.552;13.424;2023-06-14T04:42:22;7.95;;;4.05;;
39918;SDS011;25589;51.552;13.424;2023-06-14T04:44:51;4.57;;;4.18;;
39918;SDS011;25589;51.552;13.424;2023-06-14T04:47:21;4.05;;;3.65;;
39918;SDS011;25589;51.552;13.424;2023-06-14T04:49:46;6.05;;;4.05;;
39918;SDS011;25589;51.552;13.424;2023-06-14T04:52:12;5.20;;;4.45;;
39918;SDS011;25589;51.552;13.424;2023-06-14T04:54:40;5.30;;;4.20;;
39918;SDS011;25589;51.552;13.424;2023-06-14T04:57:08;4.60;;;4.10;;
39918;SDS011;25589;51.552;13.424;2023-06-14T04:59:40;5.43;;;4.05;;
39918;SDS011;25589;51.552;13.424;2023-06-14T05:02:06;6.82;;;4.05;;
39918;SDS011;25589;51.552;13.424;2023-06-14T05:04:33;5.57;;;4.63;;
39918;SDS011;25589;51.552;13.424;2023-06-14T05:06:59;7.53;;;4.57;;
39918;SDS011;25589;51.552;13.424;2023-06-14T05:09:27;7.80;;;4.60;;
39918;SDS011;25589;51.552;13.424;2023-06-14T05:11:53;4.80;;;4.18;;
39918;SDS011;25589;51.552;13.424;2023-06-14T05:14:19;4.20;;;3.72;;
39918;SDS011;25589;51.552;13.424;2023-06-14T05:16:45;6.35;;;4.65;;
39918;SDS011;25589;51.552;13.424;2023-06-14T05:19:13;6.50;;;4.45;;
39918;SDS011;25589;51.552;13.424;2023-06-14T05:21:39;6.30;;;4.28;;
39918;SDS011;25589;51.552;13.424;2023-06-14T05:24:05;5.10;;;4.32;;
39918;SDS011;25589;51.552;13.424;2023-06-14T05:26:30;7.30;;;4.18;;
39918;SDS011;25589;51.552;13.424;2023-06-14T05:28:56;5.35;;;4.45;;
39918;SDS011;25589;51.552;13.424;2023-06-14T05:31:23;13.07;;;4.72;;
39918;SDS011;25589;51.552;13.424;2023-06-14T05:33:51;7.25;;;4.38;;
39918;SDS011;25589;51.552;13.424;2023-06-14T05:36:17;6.28;;;4.47;;
39918;SDS011;25589;51.552;13.424;2023-06-14T05:38:43;5.65;;;4.75;;
39918;SDS011;25589;51.552;13.424;2023-06-14T05:41:08;5.68;;;3.83;;
39918;SDS011;25589;51.552;13.424;2023-06-14T05:43:34;6.05;;;4.80;;
39918;SDS011;25589;51.552;13.424;2023-06-14T05:45:59;5.70;;;5.00;;
39918;SDS011;25589;51.552;13.424;2023-06-14T05:48:25;5.50;;;4.50;;
39918;SDS011;25589;51.552;13.424;2023-06-14T05:50:51;6.03;;;4.70;;
39918;SDS011;25589;51.552;13.424;2023-06-14T05:53:16;6.65;;;4.60;;
39918;SDS011;25589;51.552;13.424;2023-06-14T05:55:42;7.05;;;4.60;;
39918;SDS011;25589;51.552;13.424;2023-06-14T05:58:07;5.82;;;4.75;;
39918;SDS011;25589;51.552;13.424;2023-06-14T06:00:33;5.20;;;4.57;;
39918;SDS011;25589;51.552;13.424;2023-06-14T06:02:59;6.10;;;4.47;;
39918;SDS011;25589;51.552;13.424;2023-06-14T06:05:25;6.40;;;4.70;;
39918;SDS011;25589;51.552;13.424;2023-06-14T06:07:51;8.20;;;4.72;;
39918;SDS011;25589;51.552;13.424;2023-06-14T06:10:16;6.85;;;4.55;;
39918;SDS011;25589;51.552;13.424;2023-06-14T06:12:42;4.65;;;4.13;;
39918;SDS011;25589;51.552;13.424;2023-06-14T06:15:08;6.32;;;4.22;;
39918;SDS011;25589;51.552;13.424;2023-06-14T06:17:37;7.28;;;4.60;;
39918;SDS011;25589;51.552;13.424;2023-06-14T06:20:03;6.47;;;4.65;;
39918;SDS011;25589;51.552;13.424;2023-06-14T06:22:31;5.90;;;4.55;;
39918;SDS011;25589;51.552;13.424;2023-06-14T06:24:57;5.10;;;3.67;;
39918;SDS011;25589;51.552;13.424;2023-06-14T06:27:22;6.53;;;4.38;;
39918;SDS011;25589;51.552;13.424;2023-06-14T06:29:48;4.70;;;3.88;;
39918;SDS011;25589;51.552;13.424;2023-06-14T06:32:14;5.70;;;4.18;;
39918;SDS011;25589;51.552;13.424;2023-06-14T06:34:40;6.30;;;4.18;;
39918;SDS011;25589;51.552;13.424;2023-06-14T06:37:06;5.45;;;4.28;;
39918;SDS011;25589;51.552;13.424;2023-06-14T06:39:32;5.78;;;4.28;;
39918;SDS011;25589;51.552;13.424;2023-06-14T06:41:58;6.00;;;3.85;;
39918;SDS011;25589;51.552;13.424;2023-06-14T06:44:31;4.10;;;3.70;;
39918;SDS011;25589;51.552;13.424;2023-06-14T06:46:57;4.15;;;3.67;;
39918;SDS011;25589;51.552;13.424;2023-06-14T06:49:23;12.57;;;3.95;;
39918;SDS011;25589;51.552;13.424;2023-06-14T06:54:29;4.90;;;3.92;;
39918;SDS011;25589;51.552;13.424;2023-06-14T06:56:55;4.35;;;3.95;;
39918;SDS011;25589;51.552;13.424;2023-06-14T06:59:21;5.40;;;3.65;;
39918;SDS011;25589;51.552;13.424;2023-06-14T07:01:47;5.05;;;3.72;;
39918;SDS011;25589;51.552;13.424;2023-06-14T07:04:12;4.30;;;3.90;;
39918;SDS011;25589;51.552;13.424;2023-06-14T07:06:38;6.43;;;4.53;;
39918;SDS011;25589;51.552;13.424;2023-06-14T07:09:04;7.20;;;3.55;;
39918;SDS011;25589;51.552;13.424;2023-06-14T07:11:33;4.03;;;3.47;;
39918;SDS011;25589;51.552;13.424;2023-06-14T07:13:59;3.95;;;3.55;;
39918;SDS011;25589;51.552;13.424;2023-06-14T07:16:24;4.65;;;3.65;;
39918;SDS011;25589;51.552;13.424;2023-06-14T07:18:50;4.80;;;3.60;;
39918;SDS011;25589;51.552;13.424;2023-06-14T07:21:16;4.10;;;3.17;;
39918;SDS011;25589;51.552;13.424;2023-06-14T07:23:42;4.28;;;3.50;;
39918;SDS011;25589;51.552;13.424;2023-06-14T07:26:08;4.95;;;3.75;;
39918;SDS011;25589;51.552;13.424;2023-06-14T07:28:33;4.18;;;3.75;;
39918;SDS011;25589;51.552;13.424;2023-06-14T07:30:59;5.70;;;3.60;;
39918;SDS011;25589;51.552;13.424;2023-06-14T07:33:24;3.72;;;3.38;;
39918;SDS011;25589;51.552;13.424;2023-06-14T07:35:50;5.15;;;3.60;;
39918;SDS011;25589;51.552;13.424;2023-06-14T07:38:17;5.68;;;3.28;;
39918;SDS011;25589;51.552;13.424;2023-06-14T07:40:43;4.75;;;3.85;;
39918;SDS011;25589;51.552;13.424;2023-06-14T07:43:08;4.78;;;3.78;;
39918;SDS011;25589;51.552;13.424;2023-06-14T07:45:34;4.00;;;3.45;;
39918;SDS011;25589;51.552;13.424;2023-06-14T07:47:59;4.93;;;3.47;;
39918;SDS011;25589;51.552;13.424;2023-06-14T07:50:25;4.68;;;3.38;;
39918;SDS011;25589;51.552;13.424;2023-06-14T07:52:50;5.50;;;3.53;;
39918;SDS011;25589;51.552;13.424;2023-06-14T07:55:16;5.70;;;4.28;;
39918;SDS011;25589;51.552;13.424;2023-06-14T07:57:42;4.65;;;3.45;;
39918;SDS011;25589;51.552;13.424;2023-06-14T08:00:09;3.60;;;3.30;;
39918;SDS011;25589;51.552;13.424;2023-06-14T08:02:40;4.05;;;2.83;;
39918;SDS011;25589;51.552;13.424;2023-06-14T08:05:09;3.47;;;2.83;;
39918;SDS011;25589;51.552;13.424;2023-06-14T08:07:39;4.03;;;3.45;;
39918;SDS011;25589;51.552;13.424;2023-06-14T08:10:05;5.18;;;3.55;;
39918;SDS011;25589;51.552;13.424;2023-06-14T08:12:31;7.07;;;3.47;;
39918;SDS011;25589;51.552;13.424;2023-06-14T08:14:59;3.33;;;2.97;;
39918;SDS011;25589;51.552;13.424;2023-06-14T08:17:25;3.60;;;3.30;;
39918;SDS011;25589;51.552;13.424;2023-06-14T08:19:50;3.90;;;3.30;;
39918;SDS011;25589;51.552;13.424;2023-06-14T08:22:16;4.43;;;3.30;;
39918;SDS011;25589;51.552;13.424;2023-06-14T08:24:43;4.18;;;3.78;;
39918;SDS011;25589;51.552;13.424;2023-06-14T08:27:09;4.25;;;3.85;;
39918;SDS011;25589;51.552;13.424;2023-06-14T08:29:35;4.00;;;3.03;;
39918;SDS011;25589;51.552;13.424;2023-06-14T08:32:00;5.65;;;3.05;;
39918;SDS011;25589;51.552;13.424;2023-06-14T08:34:26;6.20;;;3.78;;
39918;SDS011;25589;51.552;13.424;2023-06-14T08:36:52;4.78;;;3.60;;
39918;SDS011;25589;51.552;13.424;2023-06-14T08:39:18;3.47;;;2.97;;
39918;SDS011;25589;51.552;13.424;2023-06-14T08:41:46;3.28;;;2.97;;
39918;SDS011;25589;51.552;13.424;2023-06-14T08:44:14;3.97;;;3.05;;
39918;SDS011;25589;51.552;13.424;2023-06-14T08:46:41;5.22;;;2.85;;
39918;SDS011;25589;51.552;13.424;2023-06-14T08:49:07;3.45;;;3.15;;
39918;SDS011;25589;51.552;13.424;2023-06-14T08:51:36;3.00;;;2.80;;
39918;SDS011;25589;51.552;13.424;2023-06-14T08:54:02;4.43;;;2.55;;
39918;SDS011;25589;51.552;13.424;2023-06-14T08:56:29;3.13;;;2.63;;
39918;SDS011;25589;51.552;13.424;2023-06-14T08:58:56;4.15;;;2.78;;
39918;SDS011;25589;51.552;13.424;2023-06-14T09:01:23;3.65;;;2.60;;
39918;SDS011;25589;51.552;13.424;2023-06-14T09:03:49;3.70;;;2.75;;
39918;SDS011;25589;51.552;13.424;2023-06-14T09:06:15;5.20;;;2.75;;
39918;SDS011;25589;51.552;13.424;2023-06-14T09:08:45;3.45;;;2.70;;
39918;SDS011;25589;51.552;13.424;2023-06-14T09:11:12;5.07;;;3.38;;
39918;SDS011;25589;51.552;13.424;2023-06-14T09:13:39;3.10;;;2.80;;
39918;SDS011;25589;51.552;13.424;2023-06-14T09:16:06;3.53;;;3.08;;
39918;SDS011;25589;51.552;13.424;2023-06-14T09:18:39;3.78;;;2.85;;
39918;SDS011;25589;51.552;13.424;2023-06-14T09:21:15;4.45;;;2.92;;
39918;SDS011;25589;51.552;13.424;2023-06-14T09:23:42;5.80;;;3.30;;
39918;SDS011;25589;51.552;13.424;2023-06-14T09:26:13;3.95;;;3.50;;
39918;SDS011;25589;51.552;13.424;2023-06-14T09:28:43;4.75;;;3.55;;
39918;SDS011;25589;51.552;13.424;2023-06-14T09:31:16;3.65;;;3.10;;
39918;SDS011;25589;51.552;13.424;2023-06-14T09:33:43;5.50;;;3.25;;
39918;SDS011;25589;51.552;13.424;2023-06-14T09:36:31;4.13;;;3.40;;
39918;SDS011;25589;51.552;13.424;2023-06-14T09:38:58;5.35;;;3.92;;
39918;SDS011;25589;51.552;13.424;2023-06-14T09:41:38;4.10;;;3.50;;
39918;SDS011;25589;51.552;13.424;2023-06-14T09:44:05;4.10;;;3.70;;
39918;SDS011;25589;51.552;13.424;2023-06-14T09:46:32;4.60;;;4.03;;
39918;SDS011;25589;51.552;13.424;2023-06-14T09:48:59;4.93;;;4.35;;
39918;SDS011;25589;51.552;13.424;2023-06-14T09:51:25;5.13;;;4.50;;
39918;SDS011;25589;51.552;13.424;2023-06-14T09:53:52;6.25;;;4.75;;
39918;SDS011;25589;51.552;13.424;2023-06-14T09:58:56;4.82;;;4.28;;
39918;SDS011;25589;51.552;13.424;2023-06-14T10:01:26;4.63;;;4.10;;
39918;SDS011;25589;51.552;13.424;2023-06-14T10:03:55;4.75;;;3.92;;
39918;SDS011;25589;51.552;13.424;2023-06-14T10:06:31;5.15;;;3.83;;
39918;SDS011;25589;51.552;13.424;2023-06-14T10:09:02;5.10;;;3.80;;
39918;SDS011;25589;51.552;13.424;2023-06-14T10:11:30;5.15;;;3.83;;
39918;SDS011;25589;51.552;13.424;2023-06-14T10:13:57;3.80;;;3.40;;
39918;SDS011;25589;51.552;13.424;2023-06-14T10:16:34;6.45;;;4.25;;
39918;SDS011;25589;51.552;13.424;2023-06-14T10:19:11;4.57;;;4.18;;
39918;SDS011;25589;51.552;13.424;2023-06-14T10:21:46;5.10;;;3.90;;
39918;SDS011;25589;51.552;13.424;2023-06-14T10:24:15;7.07;;;4.00;;
39918;SDS011;25589;51.552;13.424;2023-06-14T10:26:53;3.92;;;3.35;;
39918;SDS011;25589;51.552;13.424;2023-06-14T10:29:19;4.10;;;3.30;;
39918;SDS011;25589;51.552;13.424;2023-06-14T10:31:49;4.15;;;3.17;;
39918;SDS011;25589;51.552;13.424;2023-06-14T10:34:22;5.10;;;3.28;;
39918;SDS011;25589;51.552;13.424;2023-06-14T10:37:11;4.13;;;3.40;;
39918;SDS011;25589;51.552;13.424;2023-06-14T10:39:42;4.93;;;3.30;;
39918;SDS011;25589;51.552;13.424;2023-06-14T10:42:10;3.85;;;3.45;;
39918;SDS011;25589;51.552;13.424;2023-06-14T10:47:06;4.90;;;3.25;;
39918;SDS011;25589;51.552;13.424;2023-06-14T10:49:43;3.75;;;3.22;;
39918;SDS011;25589;51.552;13.424;2023-06-14T10:57:47;5.38;;;3.75;;
39918;SDS011;25589;51.552;13.424;2023-06-14T11:00:17;4.10;;;3.10;;
39918;SDS011;25589;51.552;13.424;2023-06-14T11:05:48;4.38;;;3.40;;
39918;SDS011;25589;51.552;13.424;2023-06-14T11:10:49;5.65;;;3.63;;
39918;SDS011;25589;51.552;13.424;2023-06-14T11:13:16;3.78;;;3.38;;
39918;SDS011;25589;51.552;13.424;2023-06-14T11:15:45;5.03;;;3.78;;
39918;SDS011;25589;51.552;13.424;2023-06-14T11:18:13;4.15;;;3.20;;
39918;SDS011;25589;51.552;13.424;2023-06-14T11:20:39;6.05;;;3.63;;
39918;SDS011;25589;51.552;13.424;2023-06-14T11:23:05;5.15;;;4.00;;
39918;SDS011;25589;51.552;13.424;2023-06-14T11:25:31;4.47;;;3.53;;
39918;SDS011;25589;51.552;13.424;2023-06-14T11:27:57;7.13;;;3.80;;
39918;SDS011;25589;51.552;13.424;2023-06-14T11:30:23;4.90;;;3.55;;
39918;SDS011;25589;51.552;13.424;2023-06-14T11:32:50;5.35;;;3.50;;
39918;SDS011;25589;51.552;13.424;2023-06-14T11:35:17;6.57;;;3.33;;
39918;SDS011;25589;51.552;13.424;2023-06-14T11:37:43;4.13;;;3.63;;
39918;SDS011;25589;51.552;13.424;2023-06-14T11:40:14;3.97;;;3.10;;
39918;SDS011;25589;51.552;13.424;2023-06-14T11:42:40;4.18;;;3.58;;
39918;SDS011;25589;51.552;13.424;2023-06-14T11:45:10;4.45;;;3.28;;
39918;SDS011;25589;51.552;13.424;2023-06-14T11:47:37;4.45;;;4.05;;
39918;SDS011;25589;51.552;13.424;2023-06-14T11:50:04;5.65;;;3.78;;
39918;SDS011;25589;51.552;13.424;2023-06-14T11:52:34;6.20;;;3.95;;
39918;SDS011;25589;51.552;13.424;2023-06-14T11:55:00;3.85;;;3.47;;
39918;SDS011;25589;51.552;13.424;2023-06-14T11:57:29;9.57;;;3.10;;
39918;SDS011;25589;51.552;13.424;2023-06-14T11:59:55;5.10;;;3.10;;
39918;SDS011;25589;51.552;13.424;2023-06-14T12:02:21;3.45;;;2.90;;
39918;SDS011;25589;51.552;13.424;2023-06-14T12:04:47;2.85;;;2.63;;
39918;SDS011;25589;51.552;13.424;2023-06-14T12:07:16;3.03;;;2.75;;
39918;SDS011;25589;51.552;13.424;2023-06-14T12:12:23;4.38;;;3.30;;
39918;SDS011;25589;51.552;13.424;2023-06-14T12:14:50;3.85;;;2.85;;
39918;SDS011;25589;51.552;13.424;2023-06-14T12:17:16;3.67;;;3.22;;
39918;SDS011;25589;51.552;13.424;2023-06-14T12:19:43;3.97;;;2.95;;
39918;SDS011;25589;51.552;13.424;2023-06-14T12:22:10;5.82;;;3.03;;
39918;SDS011;25589;51.552;13.424;2023-06-14T12:24:36;3.53;;;2.97;;
39918;SDS011;25589;51.552;13.424;2023-06-14T12:27:03;3.00;;;2.80;;
39918;SDS011;25589;51.552;13.424;2023-06-14T12:29:29;5.43;;;3.17;;
39918;SDS011;25589;51.552;13.424;2023-06-14T12:31:55;3.70;;;3.10;;
39918;SDS011;25589;51.552;13.424;2023-06-14T12:34:24;4.60;;;3.20;;
39918;SDS011;25589;51.552;13.424;2023-06-14T12:36:52;4.50;;;3.45;;
39918;SDS011;25589;51.552;13.424;2023-06-14T12:39:18;3.83;;;2.70;;
39918;SDS011;25589;51.552;13.424;2023-06-14T12:41:44;3.72;;;3.15;;
39918;SDS011;25589;51.552;13.424;2023-06-14T12:44:10;4.22;;;2.97;;
39918;SDS011;25589;51.552;13.424;2023-06-14T12:46:36;5.97;;;3.20;;
39918;SDS011;25589;51.552;13.424;2023-06-14T12:49:04;4.05;;;2.58;;
39918;SDS011;25589;51.552;13.424;2023-06-14T12:51:30;3.67;;;2.65;;
39918;SDS011;25589;51.552;13.424;2023-06-14T12:53:56;3.90;;;2.70;;
39918;SDS011;25589;51.552;13.424;2023-06-14T12:56:21;4.18;;;2.83;;
39918;SDS011;25589;51.552;13.424;2023-06-14T12:58:47;3.33;;;2.75;;
39918;SDS011;25589;51.552;13.424;2023-06-14T13:01:12;4.45;;;2.42;;
39918;SDS011;25589;51.552;13.424;2023-06-14T13:03:38;3.70;;;2.50;;
39918;SDS011;25589;51.552;13.424;2023-06-14T13:06:04;3.63;;;2.60;;
39918;SDS011;25589;51.552;13.424;2023-06-14T13:08:30;4.07;;;2.92;;
39918;SDS011;25589;51.552;13.424;2023-06-14T13:10:56;6.05;;;2.60;;
39918;SDS011;25589;51.552;13.424;2023-06-14T13:13:22;5.55;;;2.30;;
39918;SDS011;25589;51.552;13.424;2023-06-14T13:15:48;6.95;;;3.17;;
39918;SDS011;25589;51.552;13.424;2023-06-14T13:18:15;2.95;;;2.50;;
39918;SDS011;25589;51.552;13.424;2023-06-14T13:20:41;3.33;;;2.50;;
39918;SDS011;25589;51.552;13.424;2023-06-14T13:23:07;2.60;;;2.00;;
39918;SDS011;25589;51.552;13.424;2023-06-14T13:25:36;2.38;;;2.00;;
39918;SDS011;25589;51.552;13.424;2023-06-14T13:28:03;2.90;;;2.30;;
39918;SDS011;25589;51.552;13.424;2023-06-14T13:30:30;3.40;;;2.35;;
39918;SDS011;25589;51.552;13.424;2023-06-14T13:32:56;3.00;;;2.20;;
39918;SDS011;25589;51.552;13.424;2023-06-14T13:35:22;3.58;;;2.90;;
39918;SDS011;25589;51.552;13.424;2023-06-14T13:37:48;5.30;;;2.28;;
39918;SDS011;25589;51.552;13.424;2023-06-14T13:40:14;2.92;;;2.58;;
39918;SDS011;25589;51.552;13.424;2023-06-14T13:42:40;4.68;;;2.40;;
39918;SDS011;25589;51.552;13.424;2023-06-14T13:45:06;4.00;;;2.00;;
39918;SDS011;25589;51.552;13.424;2023-06-14T13:47:33;2.67;;;2.00;;
39918;SDS011;25589;51.552;13.424;2023-06-14T13:49:58;4.35;;;2.45;;
39918;SDS011;25589;51.552;13.424;2023-06-14T13:52:24;3.00;;;2.42;;
39918;SDS011;25589;51.552;13.424;2023-06-14T13:54:51;3.63;;;2.55;;
39918;SDS011;25589;51.552;13.424;2023-06-14T13:57:17;3.65;;;2.30;;
39918;SDS011;25589;51.552;13.424;2023-06-14T13:59:43;4.78;;;2.70;;
39918;SDS011;25589;51.552;13.424;2023-06-14T14:02:09;4.00;;;2.28;;
39918;SDS011;25589;51.552;13.424;2023-06-14T14:04:36;3.38;;;2.15;;
39918;SDS011;25589;51.552;13.424;2023-06-14T14:07:02;3.35;;;2.60;;
39918;SDS011;25589;51.552;13.424;2023-06-14T14:09:29;2.58;;;2.38;;
39918;SDS011;25589;51.552;13.424;2023-06-14T14:11:55;3.28;;;2.53;;
39918;SDS011;25589;51.552;13.424;2023-06-14T14:14:21;2.55;;;2.20;;
39918;SDS011;25589;51.552;13.424;2023-06-14T14:16:48;5.07;;;2.53;;
39918;SDS011;25589;51.552;13.424;2023-06-14T14:19:16;4.95;;;2.47;;
39918;SDS011;25589;51.552;13.424;2023-06-14T14:21:43;2.85;;;2.38;;
39918;SDS011;25589;51.552;13.424;2023-06-14T14:24:09;4.43;;;2.50;;
39918;SDS011;25589;51.552;13.424;2023-06-14T14:26:35;4.68;;;2.53;;
39918;SDS011;25589;51.552;13.424;2023-06-14T14:29:01;4.03;;;2.50;;
39918;SDS011;25589;51.552;13.424;2023-06-14T14:31:27;3.35;;;2.42;;
39918;SDS011;25589;51.552;13.424;2023-06-14T14:33:53;3.13;;;2.72;;
39918;SDS011;25589;51.552;13.424;2023-06-14T14:36:19;4.93;;;2.10;;
39918;SDS011;25589;51.552;13.424;2023-06-14T14:38:44;3.95;;;2.60;;
39918;SDS011;25589;51.552;13.424;2023-06-14T14:41:10;2.70;;;2.30;;
39918;SDS011;25589;51.552;13.424;2023-06-14T14:43:35;2.80;;;2.53;;
39918;SDS011;25589;51.552;13.424;2023-06-14T14:46:01;5.55;;;2.53;;
39918;SDS011;25589;51.552;13.424;2023-06-14T14:48:27;2.42;;;2.22;;
39918;SDS011;25589;51.552;13.424;2023-06-14T14:50:52;2.85;;;2.55;;
39918;SDS011;25589;51.552;13.424;2023-06-14T14:53:18;3.97;;;2.15;;
39918;SDS011;25589;51.552;13.424;2023-06-14T14:55:43;3.60;;;2.17;;